Terminal Aerodrome Forecast
Issued by NWS

Home | Current Version | Previous Version | Text Only | Print | Product List | Glossary On
Versions: 1 2 3 4 5 6 7 8 9 10 11 12 13 14 15 16 17 18 19 20 21 22 23 24 25 26 27 28 29 30 31 32 33 34
000
FTUS45 KPSR 020500
TAFSDL
TAF
KSDL 020528Z 0206/0306 22005KT P6SM SCT060 BKN090
     FM020900 18011KT P6SM VCSH SCT040 BKN060 OVC080
     FM021400 16012KT P6SM -RA FEW020 BKN040 OVC070
     FM021700 19015G22KT 5SM RA BR FEW010 BKN020 OVC035
     FM022100 24008KT P6SM VCSH SCT020 BKN040
     FM030100 09007KT P6SM FEW030 SCT050=

USA.gov is the U.S. government's official web portal to all federal, state and local government web resources and services.